KPLR

Details ICAO KPLR
Name ST CLAIR CO
Region United States
Timezone America/Chicago (UTC-6.0)
Plans Departing 3
Arriving 0
Stats Elevation 485 ft / 148 m (AMSL)
Location 33.558830° -86.249034°
Runways 1
Magnetic Variation 3.823° W
Sunrise 2017-12-17 12:44:42 UTC / 2017-12-17 06:44:42 Local
Sunset 2017-12-17 22:40:30 UTC / 2017-12-17 16:40:30 Local
Advertisement - Login to hide

Runways

ID Width Length Bearing (true) Bearing (mag) Surface Threshold Offset Overrun Length
02 80 ft / 24 m 5,012 ft / 1,528 m 22.02° 25.84° Asphalt 39 ft / 12 m 0 ft / 0 m
20 80 ft / 24 m 5,012 ft / 1,528 m 202.03° 205.85° Asphalt 0 ft / 0 m 0 ft / 0 m

Map

Weather


0- 5 10 15 20 25 30 35+ Temperature / ° C

Clouds and Precipitation
Forecast for 2017-12-18 00:00 UTC. Updated 13 minutes ago

Ground ~20,000 ft ~40,000 ft Winds

METAR

KPLR 172135Z AUTO 01005KT 6SM BR BKN004 OVC016 07/07 A3015 RMK A01

TAF

Not found

Frequencies

Unicom 123.05 MHz CTAF/UNICOM
Approach 123.80 MHz BIRMINGHAM APP/DEP
Warning: Do not use this data for real-world aviation or navigation. No guarantee of current accuracy is given.